Impacts TAF Board INFO
FOR SITUATIONAL AWARENESS. NOT TO BE USED FOR FLIGHT PLANNING PURPOSES.
IDs:

KPHX - Phoenix/Sky Harbor, AZ, US

Issued at 1723 UTC 15 Dec 2017
Updated at 1736 UTC 15 Dec 2017
Potential Impact None Slight Moderate High
Time1651Z 15/18Z 15/19Z 15/20Z 15/21Z 15/22Z 15/23Z 16/00Z 16/01Z 16/02Z 16/03Z 16/04Z 16/05Z 16/06Z>>
Type OBS PRVL PRVL PRVL PRVL PRVL PRVL PRVL PRVL PRVL PRVL PRVL PRVL PRVL
VIS 10 >6 >6 >6 >6 >6 >6 >6 >6 >6 >6 >6 >6 >6
CIG -- -- -- -- -- -- -- -- -- -- -- -- -- --
Cover CLR SKC SKC SKC FEW FEW FEW FEW FEW FEW FEW FEW FEW FEW
FltCat VFR VFR VFR VFR VFR VFR VFR VFR VFR VFR VFR VFR VFR VFR
WX -- -- -- -- -- -- -- -- -- -- -- -- -- --
WDir 80 90 90 90 VRB VRB VRB VRB VRB VRB VRB 110 110 110
WSpd 13 12 12 12 4 4 4 4 4 4 4 5 5 5
WGst -- -- -- -- -- -- -- -- -- -- -- -- -- --

Raw TAF
KPHX 151723Z 1518/1624 09012KT P6SM SKC
  FM152100 VRB04KT P6SM FEW250
  FM160400 11005KT P6SM FEW250
  FM161500 12009KT P6SM BKN180
  FM162100 12005KT P6SM OVC180


Raw METAR
KPHX 151651Z 08013KT 10SM CLR 18/M10 A3021 RMK AO2 SLP219 T01781100
KPHX 151551Z 00000KT 10SM CLR 15/M09 A3021 RMK AO2 SLP219 T01501094
KPHX 151451Z VRB04KT 10SM CLR 11/M08 A3019 RMK AO2 SLP217 T01061078 53014

METAR Board
Radar Display
Forecast Discussion

FOR SITUATIONAL AWARENESS. NOT TO BE USED FOR FLIGHT PLANNING PURPOSES.